Time;durP1;ratioP1;P1;durP2;ratioP2;P2;SDS_P1;SDS_P2;PMS_P1;PMS_P2;Temp;Humidity;BMP_temperature;BMP_pressure;BME280_temperature;BME280_humidity;BME280_pressure;Samples;Min_cycle;Max_cycle;Signal;HPM_P1;HPM_P2
2021/04/03 00:01:52;;;;;;;13.23;4.67;;;;;;;3.83;82.35;101104.59;5062575;28;20259;-71
2021/04/03 00:04:18;;;;;;;13.87;4.80;;;;;;;3.84;81.93;101106.31;5057283;28;20226;-72
2021/04/03 00:06:44;;;;;;;18.93;5.27;;;;;;;3.88;81.96;101102.94;5062261;28;20202;-72
2021/04/03 00:09:10;;;;;;;15.63;5.23;;;;;;;3.96;81.75;101106.56;5067784;28;20209;-71
2021/04/03 00:11:36;;;;;;;18.00;4.63;;;;;;;3.95;81.73;101101.38;5060855;28;20701;-72
2021/04/03 00:14:02;;;;;;;10.03;4.63;;;;;;;4.00;81.46;101107.47;5061650;28;20218;-71
2021/04/03 00:16:28;;;;;;;16.93;5.27;;;;;;;4.00;81.49;101111.78;5046966;28;20555;-71
2021/04/03 00:18:55;;;;;;;15.00;4.60;;;;;;;3.93;81.52;101121.13;5043138;28;20199;-72
2021/04/03 00:21:21;;;;;;;12.03;4.73;;;;;;;3.88;80.84;101117.59;5049525;28;20202;-71
2021/04/03 00:23:46;;;;;;;19.70;4.37;;;;;;;3.96;81.15;101116.00;5047569;28;20250;-72
2021/04/03 00:26:14;;;;;;;13.03;4.23;;;;;;;4.01;82.33;101114.41;5049586;28;20202;-72
2021/04/03 00:28:40;;;;;;;18.70;5.23;;;;;;;3.92;83.15;101106.47;5047258;28;20198;-71
2021/04/03 00:31:06;;;;;;;12.07;4.60;;;;;;;3.84;83.69;101108.91;5051444;28;20205;-72
2021/04/03 00:33:32;;;;;;;16.13;3.87;;;;;;;3.85;82.86;101110.66;5060077;28;20200;-71
2021/04/03 00:35:59;;;;;;;14.07;4.43;;;;;;;3.78;83.99;101111.38;5051938;28;20211;-71
2021/04/03 00:38:25;;;;;;;16.50;4.57;;;;;;;3.85;83.36;101118.41;5046862;28;20671;-71
2021/04/03 00:40:51;;;;;;;17.97;4.57;;;;;;;3.90;82.74;101103.00;5051220;28;20220;-71
2021/04/03 00:43:19;;;;;;;12.83;4.87;;;;;;;3.78;84.34;101116.53;5046962;28;20230;-71
2021/04/03 00:45:46;;;;;;;17.60;5.00;;;;;;;3.82;83.19;101110.59;5045900;28;20201;-71
2021/04/03 00:48:13;;;;;;;12.97;3.83;;;;;;;3.68;84.05;101099.13;5045654;28;20208;-71
2021/04/03 00:50:41;;;;;;;8.77;3.40;;;;;;;3.50;83.47;101099.63;5050860;28;20579;-71
2021/04/03 00:53:09;;;;;;;14.73;4.33;;;;;;;3.42;84.35;101102.03;5043974;28;20541;-72
2021/04/03 00:55:36;;;;;;;12.67;3.20;;;;;;;3.38;84.54;101100.25;5046745;28;20242;-71
2021/04/03 00:58:02;;;;;;;15.60;3.97;;;;;;;3.38;83.86;101102.81;5047184;28;20199;-72
2021/04/03 01:00:28;;;;;;;17.40;4.30;;;;;;;3.49;83.33;101097.88;5052699;28;20209;-72
2021/04/03 01:02:54;;;;;;;7.67;3.60;;;;;;;3.43;82.57;101103.81;5053213;28;20229;-71
2021/04/03 01:05:22;;;;;;;10.93;3.20;;;;;;;3.57;82.83;101104.94;5052086;28;20232;-72
2021/04/03 01:07:48;;;;;;;9.63;2.90;;;;;;;3.51;82.09;101106.53;5049893;28;20198;-71
2021/04/03 01:10:17;;;;;;;19.87;4.60;;;;;;;3.37;81.61;101112.28;5046534;28;20201;-72
2021/04/03 01:12:57;;;;;;;10.90;2.87;;;;;;;3.50;80.28;101113.41;5063295;28;20212;-71
2021/04/03 01:15:33;;;;;;;16.07;3.07;;;;;;;3.41;80.11;101108.06;5068262;28;20235;-71
2021/04/03 01:18:07;;;;;;;8.07;3.10;;;;;;;3.20;80.53;101118.78;5060037;28;20200;-71
2021/04/03 01:20:54;;;;;;;11.70;2.57;;;;;;;3.03;81.17;101120.97;5066239;28;20739;-71
2021/04/03 01:23:55;;;;;;;15.47;2.53;;;;;;;2.87;81.57;101114.59;5061818;28;20221;-71
2021/04/03 01:27:09;;;;;;;12.23;3.33;;;;;;;2.76;81.33;101124.66;5046182;28;20228;-72
2021/04/03 01:30:05;;;;;;;11.37;3.63;;;;;;;2.67;81.83;101121.84;5057044;28;20202;-71
2021/04/03 01:32:55;;;;;;;6.07;2.30;;;;;;;2.68;81.69;101115.00;5064985;28;20199;-71
2021/04/03 01:35:26;;;;;;;9.77;3.30;;;;;;;2.57;80.93;101125.03;5060841;28;20221;-72
2021/04/03 01:37:57;;;;;;;10.37;2.83;;;;;;;2.50;81.04;101123.16;5065123;28;20204;-71
2021/04/03 01:40:24;;;;;;;13.17;3.63;;;;;;;2.46;81.26;101123.88;5065434;28;20265;-71
2021/04/03 01:42:54;;;;;;;12.30;3.50;;;;;;;2.33;81.86;101122.72;5073061;28;20312;-71
2021/04/03 01:45:23;;;;;;;14.03;3.00;;;;;;;2.28;82.10;101126.88;5067091;28;20338;-71
2021/04/03 01:47:51;;;;;;;18.03;3.00;;;;;;;2.35;81.67;101131.34;5072968;28;20197;-72
2021/04/03 01:50:19;;;;;;;8.03;2.77;;;;;;;2.32;81.62;101121.84;5066914;28;20220;-72
2021/04/03 01:52:46;;;;;;;12.33;3.13;;;;;;;2.23;82.03;101126.75;5064331;28;20707;-71
2021/04/03 01:55:14;;;;;;;11.67;2.33;;;;;;;2.21;82.36;101125.84;5067046;28;20248;-72
2021/04/03 01:57:44;;;;;;;11.87;3.87;;;;;;;2.19;82.84;101130.09;5064625;28;20245;-71
2021/04/03 02:00:13;;;;;;;8.67;3.47;;;;;;;2.29;81.71;101123.47;5067057;28;20206;-70
2021/04/03 02:02:40;;;;;;;7.63;3.63;;;;;;;2.33;82.09;101133.88;5062111;28;20236;-71
2021/04/03 02:05:10;;;;;;;11.77;2.33;;;;;;;2.36;82.10;101135.69;5060686;28;20232;-71
2021/04/03 02:07:38;;;;;;;15.70;2.67;;;;;;;2.31;81.37;101132.97;5064568;28;20474;-72
2021/04/03 02:10:06;;;;;;;7.00;2.60;;;;;;;2.35;81.86;101137.38;5066726;28;20737;-71
2021/04/03 02:12:35;;;;;;;16.83;2.77;;;;;;;2.39;82.24;101136.63;5064302;28;20209;-71
2021/04/03 02:15:02;;;;;;;10.50;3.00;;;;;;;2.36;81.97;101140.84;5067569;28;20224;-71
2021/04/03 02:17:29;;;;;;;11.60;3.20;;;;;;;2.35;81.46;101137.38;5064033;28;20208;-71
2021/04/03 02:19:56;;;;;;;18.70;4.00;;;;;;;2.40;81.39;101137.50;5066739;28;20266;-72
2021/04/03 02:22:23;;;;;;;13.53;3.50;;;;;;;2.42;81.69;101142.69;5063993;28;20693;-72
2021/04/03 02:24:49;;;;;;;7.47;2.67;;;;;;;2.44;81.42;101135.84;5066173;28;20234;-71
2021/04/03 02:27:15;;;;;;;9.03;2.43;;;;;;;2.43;80.76;101129.84;5064125;28;20402;-71
2021/04/03 02:29:41;;;;;;;14.10;2.73;;;;;;;2.41;81.40;101126.34;5066444;28;20211;-71
2021/04/03 02:32:08;;;;;;;12.23;3.37;;;;;;;2.47;80.14;101133.38;5063626;28;20227;-71
2021/04/03 02:34:34;;;;;;;10.97;3.30;;;;;;;2.45;80.34;101135.91;5059951;28;20218;-71
2021/04/03 02:37:01;;;;;;;16.77;3.80;;;;;;;2.47;80.15;101143.69;5065917;28;20193;-71
2021/04/03 02:39:28;;;;;;;12.50;2.93;;;;;;;2.42;79.91;101142.69;5067174;28;20677;-71
2021/04/03 02:42:00;;;;;;;12.67;3.40;;;;;;;2.42;80.80;101143.56;5063178;28;20208;-71
2021/04/03 02:44:29;;;;;;;6.03;2.60;;;;;;;2.40;80.26;101142.66;5065738;28;20221;-70
2021/04/03 02:47:01;;;;;;;9.70;2.97;;;;;;;2.44;79.75;101141.91;5064056;28;20254;-69
2021/04/03 02:49:32;;;;;;;11.67;3.00;;;;;;;2.40;80.03;101147.81;5066675;28;20716;-72
2021/04/03 02:52:03;;;;;;;12.77;2.57;;;;;;;2.44;79.71;101159.94;5063552;28;20197;-71
2021/04/03 02:54:31;;;;;;;8.03;2.90;;;;;;;2.45;80.53;101163.38;5065898;28;20233;-72
2021/04/03 02:56:58;;;;;;;11.77;3.17;;;;;;;2.51;79.59;101158.38;5063315;28;20220;-72
2021/04/03 02:59:27;;;;;;;10.53;3.03;;;;;;;2.45;79.73;101153.94;5066216;28;20210;-72
2021/04/03 03:01:56;;;;;;;11.37;2.67;;;;;;;2.42;80.89;101153.88;5051908;28;20214;-72
2021/04/03 03:04:24;;;;;;;10.40;3.40;;;;;;;2.43;80.71;101155.59;5055699;28;20225;-72
2021/04/03 03:06:51;;;;;;;11.83;2.63;;;;;;;2.42;80.00;101156.47;5051977;28;20198;-71
2021/04/03 03:09:20;;;;;;;12.27;2.20;;;;;;;2.40;80.31;101158.13;5050699;28;20210;-72
2021/04/03 03:11:49;;;;;;;10.40;2.80;;;;;;;2.47;80.33;101157.44;5062711;28;20211;-69
2021/04/03 03:14:16;;;;;;;14.57;3.40;;;;;;;2.51;80.33;101161.81;5067687;28;20225;-72
2021/04/03 03:16:45;;;;;;;14.80;3.37;;;;;;;2.49;80.16;101154.91;5062214;28;20737;-70
2021/04/03 03:19:12;;;;;;;13.03;2.63;;;;;;;2.47;80.31;101160.00;5067781;28;21118;-71
2021/04/03 03:21:39;;;;;;;9.40;2.77;;;;;;;2.46;80.74;101168.59;5061546;28;20220;-72
2021/04/03 03:24:06;;;;;;;11.27;2.77;;;;;;;2.43;81.36;101157.31;5067968;28;20729;-71
2021/04/03 03:26:34;;;;;;;12.80;2.93;;;;;;;2.34;81.31;101166.56;5060682;28;20725;-71
2021/04/03 03:29:02;;;;;;;15.37;3.30;;;;;;;2.30;82.19;101162.16;5069128;28;20695;-72
2021/04/03 03:31:28;;;;;;;11.73;3.40;;;;;;;2.34;82.19;101168.28;5057389;28;20209;-71
2021/04/03 03:33:54;;;;;;;18.53;3.70;;;;;;;2.40;82.47;101155.53;5061804;28;20213;-71
2021/04/03 03:36:21;;;;;;;12.87;3.80;;;;;;;2.43;82.91;101159.91;5059190;28;20212;-72
2021/04/03 03:38:48;;;;;;;16.87;3.43;;;;;;;2.48;82.85;101151.47;5071279;28;20224;-71
2021/04/03 03:41:15;;;;;;;14.87;3.67;;;;;;;2.50;83.08;101154.09;5059100;28;20198;-71
2021/04/03 03:43:42;;;;;;;21.67;3.37;;;;;;;2.46;83.03;101158.28;5070277;28;20231;-71
2021/04/03 03:46:08;;;;;;;7.67;3.20;;;;;;;2.48;83.29;101154.03;5059605;28;20216;-71
2021/04/03 03:48:34;;;;;;;17.27;3.87;;;;;;;2.49;82.98;101168.66;5069367;28;20204;-71
2021/04/03 03:51:01;;;;;;;15.80;3.63;;;;;;;2.55;83.50;101162.78;5060562;28;20214;-71
2021/04/03 03:53:27;;;;;;;20.37;3.97;;;;;;;2.57;83.60;101166.28;5068684;28;20254;-71
2021/04/03 03:55:53;;;;;;;20.30;3.93;;;;;;;2.56;82.90;101160.25;5065560;28;20209;-71
2021/04/03 03:58:19;;;;;;;17.13;4.87;;;;;;;2.63;82.91;101160.41;5071144;28;20223;-71
2021/04/03 04:00:46;;;;;;;21.43;4.37;;;;;;;2.58;83.97;101157.72;5066533;28;20241;-71
2021/04/03 04:03:12;;;;;;;11.07;3.67;;;;;;;2.53;84.44;101160.16;5062969;28;20231;-71
2021/04/03 04:05:38;;;;;;;26.83;5.47;;;;;;;2.54;84.10;101151.63;5065573;28;20319;-71
2021/04/03 04:08:04;;;;;;;19.87;4.83;;;;;;;2.56;84.75;101160.25;5068560;28;20676;-71
2021/04/03 04:10:30;;;;;;;25.17;4.47;;;;;;;2.53;84.96;101159.28;5068729;28;20209;-71
2021/04/03 04:12:56;;;;;;;19.60;4.43;;;;;;;2.59;85.56;101160.31;5067321;28;20615;-70
2021/04/03 04:15:22;;;;;;;13.47;4.50;;;;;;;2.63;85.48;101171.56;5069148;28;20243;-71
2021/04/03 04:17:49;;;;;;;23.63;5.13;;;;;;;2.66;85.49;101169.09;5066462;28;20351;-71
2021/04/03 04:20:16;;;;;;;17.50;5.00;;;;;;;2.74;85.13;101167.56;5069347;28;20205;-71
2021/04/03 04:22:42;;;;;;;19.50;5.13;;;;;;;2.71;84.85;101174.34;5066299;28;20590;-71
2021/04/03 04:25:09;;;;;;;20.93;6.87;;;;;;;2.68;85.30;101180.31;5069710;28;20316;-71
2021/04/03 04:27:35;;;;;;;17.47;5.67;;;;;;;2.67;85.65;101185.41;5066396;28;20204;-71
2021/04/03 04:30:09;;;;;;;18.03;5.83;;;;;;;2.72;85.73;101176.97;5069094;28;20240;-71
2021/04/03 04:32:35;;;;;;;20.73;6.00;;;;;;;2.73;86.01;101193.31;5060851;28;20224;-70
2021/04/03 04:35:02;;;;;;;20.77;6.50;;;;;;;2.72;86.20;101196.72;5065566;28;20225;-71
2021/04/03 04:37:28;;;;;;;22.37;6.27;;;;;;;2.69;86.63;101192.34;5066294;28;20224;-71
2021/04/03 04:39:54;;;;;;;17.93;6.20;;;;;;;2.72;86.50;101200.16;5069266;28;20654;-71
2021/04/03 04:42:20;;;;;;;22.37;6.50;;;;;;;2.71;87.17;101206.16;5065949;28;20204;-70
2021/04/03 04:44:46;;;;;;;24.30;6.43;;;;;;;2.70;86.80;101217.31;5068458;28;20592;-71
2021/04/03 04:47:12;;;;;;;27.90;6.77;;;;;;;2.74;87.09;101213.97;5059661;28;20202;-71
2021/04/03 04:52:18;;;;;;;21.97;7.27;;;;;;;2.78;86.51;101217.50;5084782;22;20227;-82
2021/04/03 04:54:44;;;;;;;23.47;6.73;;;;;;;2.85;86.10;101219.38;5075705;28;20208;-81
2021/04/03 04:57:09;;;;;;;32.60;7.23;;;;;;;2.78;87.16;101226.09;5065204;28;20227;-81
2021/04/03 04:59:35;;;;;;;32.37;6.93;;;;;;;2.76;87.25;101232.94;5075714;28;20228;-80
2021/04/03 05:02:02;;;;;;;27.83;7.43;;;;;;;2.74;87.54;101231.16;5066240;28;20279;-80
2021/04/03 05:04:28;;;;;;;27.70;7.97;;;;;;;2.75;87.21;101236.31;5073773;28;20227;-82
2021/04/03 05:06:54;;;;;;;26.03;8.60;;;;;;;2.77;87.62;101249.25;5064456;28;20201;-81
2021/04/03 05:09:21;;;;;;;33.20;10.03;;;;;;;2.78;87.53;101243.28;5073867;28;20197;-83
2021/04/03 05:11:47;;;;;;;30.33;7.97;;;;;;;2.79;87.20;101242.44;5069864;28;20225;-80
2021/04/03 05:14:13;;;;;;;28.87;10.03;;;;;;;2.81;87.09;101245.06;5072119;28;20246;-80
2021/04/03 05:16:39;;;;;;;24.67;9.57;;;;;;;2.88;87.17;101245.25;5063719;28;20209;-79
2021/04/03 05:19:05;;;;;;;21.23;9.60;;;;;;;2.87;87.65;101248.66;5063385;28;20312;-80
2021/04/03 05:21:31;;;;;;;29.93;10.23;;;;;;;2.86;86.98;101252.09;5063597;28;20224;-82
2021/04/03 05:23:56;;;;;;;36.33;10.53;;;;;;;2.86;87.90;101271.84;5069111;28;20596;-82
2021/04/03 05:26:23;;;;;;;32.73;9.53;;;;;;;2.87;87.10;101263.25;5073047;28;20219;-81
2021/04/03 05:28:49;;;;;;;30.00;9.60;;;;;;;2.90;87.17;101268.50;5069519;28;20197;-81
2021/04/03 05:31:20;;;;;;;28.27;9.80;;;;;;;2.92;87.16;101270.28;5073740;28;20710;-82
2021/04/03 05:33:46;;;;;;;25.77;9.30;;;;;;;2.98;87.23;101283.34;5068315;28;20197;-80
2021/04/03 05:36:11;;;;;;;30.50;10.50;;;;;;;2.94;87.59;101284.09;5067748;28;20572;-80
2021/04/03 05:38:37;;;;;;;25.03;9.00;;;;;;;3.03;87.34;101286.03;5058726;28;20205;-82
2021/04/03 05:41:03;;;;;;;36.57;10.97;;;;;;;3.06;87.76;101286.13;5061447;28;20315;-80
2021/04/03 05:43:31;;;;;;;30.77;9.73;;;;;;;3.21;86.40;101298.53;5067785;28;20645;-82
2021/04/03 05:45:58;;;;;;;34.87;9.90;;;;;;;3.24;86.57;101297.72;5055831;28;20205;-82
2021/04/03 05:48:24;;;;;;;25.33;9.83;;;;;;;3.29;86.68;101303.88;5065587;28;20201;-82
2021/04/03 05:50:53;;;;;;;31.47;9.47;;;;;;;3.36;86.55;101303.19;5058852;28;20228;-81
2021/04/03 05:53:19;;;;;;;35.40;10.63;;;;;;;3.42;86.67;101299.88;5068736;28;20259;-82
2021/04/03 05:55:46;;;;;;;33.47;9.27;;;;;;;3.53;85.81;101311.34;5058936;28;20295;-80
2021/04/03 05:58:13;;;;;;;29.10;9.37;;;;;;;3.45;85.46;101308.59;5068988;28;20200;-80
2021/04/03 06:00:39;;;;;;;40.57;10.60;;;;;;;3.46;86.42;101320.63;5068462;28;20316;-79
2021/04/03 06:03:05;;;;;;;35.53;10.43;;;;;;;3.48;85.71;101316.38;5051690;28;20232;-83
2021/04/03 06:05:31;;;;;;;26.30;9.37;;;;;;;3.57;85.45;101315.75;5055571;28;20201;-82
2021/04/03 06:07:57;;;;;;;26.27;9.70;;;;;;;3.58;85.45;101315.75;5059303;28;20276;-80
2021/04/03 06:10:23;;;;;;;36.23;11.03;;;;;;;3.61;86.00;101322.72;5050810;28;20222;-80
2021/04/03 06:12:50;;;;;;;28.60;9.97;;;;;;;3.49;86.07;101327.56;5054006;28;20198;-81
2021/04/03 06:15:33;;;;;;;28.10;9.90;;;;;;;3.57;85.24;101332.09;5050331;28;20205;-80
2021/04/03 06:18:02;;;;;;;30.97;10.10;;;;;;;3.65;85.44;101340.03;5054037;28;20194;-81
2021/04/03 06:20:29;;;;;;;27.00;9.80;;;;;;;3.71;84.55;101340.19;5048368;28;20229;-79
2021/04/03 06:22:55;;;;;;;22.17;8.93;;;;;;;3.70;85.58;101340.13;5052818;28;20224;-81
2021/04/03 06:25:21;;;;;;;21.47;9.67;;;;;;;3.88;85.44;101339.69;5045902;28;20300;-81
2021/04/03 06:27:47;;;;;;;31.63;9.60;;;;;;;3.87;84.60;101348.28;5052376;28;20680;-81
2021/04/03 06:30:31;;;;;;;32.03;9.17;;;;;;;3.98;84.92;101345.13;5048307;28;20228;-81
2021/04/03 06:33:13;;;;;;;27.90;10.20;;;;;;;4.09;83.99;101347.06;5053611;28;20208;-80
2021/04/03 06:35:39;;;;;;;22.37;8.97;;;;;;;4.21;83.71;101344.75;5050067;28;20251;-80
2021/04/03 06:38:18;;;;;;;32.17;9.43;;;;;;;4.12;83.40;101357.44;5052434;28;20204;-80
2021/04/03 06:40:43;;;;;;;24.37;9.80;;;;;;;4.18;83.09;101360.16;5047386;28;20221;-79
2021/04/03 06:43:14;;;;;;;21.63;10.13;;;;;;;4.24;83.50;101357.75;5056519;28;20219;-81
2021/04/03 06:45:40;;;;;;;34.27;9.60;;;;;;;4.26;83.40;101348.31;5048736;28;20257;-80
2021/04/03 06:48:08;;;;;;;25.07;9.53;;;;;;;4.20;82.55;101353.31;5052495;28;20206;-78
2021/04/03 06:50:37;;;;;;;30.70;10.60;;;;;;;4.18;83.52;101355.91;5049363;28;20238;-80
2021/04/03 06:53:06;;;;;;;25.60;9.13;;;;;;;4.19;82.68;101364.50;5055859;28;20189;-81
2021/04/03 06:55:32;;;;;;;24.00;10.47;;;;;;;4.34;82.57;101363.97;5069207;28;20209;-78
2021/04/03 06:58:01;;;;;;;27.53;9.80;;;;;;;4.36;81.98;101370.03;5068338;28;20227;-80
2021/04/03 07:00:27;;;;;;;23.43;9.20;;;;;;;4.29;81.76;101374.19;5050692;28;20229;-80
2021/04/03 07:02:55;;;;;;;20.57;8.87;;;;;;;4.38;82.00;101378.72;5051297;28;20228;-81
2021/04/03 07:05:23;;;;;;;23.30;9.10;;;;;;;4.50;82.36;101386.72;5055484;28;20679;-81
2021/04/03 07:07:50;;;;;;;23.20;10.03;;;;;;;4.47;82.08;101385.78;5078102;28;20197;-81
2021/04/03 07:10:18;;;;;;;23.17;9.50;;;;;;;4.38;81.82;101389.91;5060604;28;20255;-79
2021/04/03 07:12:44;;;;;;;26.00;9.40;;;;;;;4.43;82.15;101391.72;5079543;28;20204;-80
2021/04/03 07:15:13;;;;;;;22.20;9.33;;;;;;;4.58;82.43;101392.06;5058548;28;20201;-80
2021/04/03 07:17:41;;;;;;;23.13;9.70;;;;;;;4.78;83.68;101403.69;5068418;28;20193;-82
2021/04/03 07:20:10;;;;;;;29.20;10.30;;;;;;;4.77;80.97;101403.66;5079454;28;20311;-81
2021/04/03 07:22:37;;;;;;;24.97;10.37;;;;;;;4.76;81.69;101407.94;5074618;28;20219;-80
2021/04/03 07:25:07;;;;;;;28.13;11.17;;;;;;;4.66;80.11;101407.72;5064047;28;20202;-81
2021/04/03 07:27:36;;;;;;;22.67;10.17;;;;;;;4.50;80.55;101401.34;5064319;28;20225;-80
2021/04/03 07:30:02;;;;;;;21.40;10.07;;;;;;;4.49;81.24;101407.38;5062108;28;20656;-80
2021/04/03 07:32:32;;;;;;;18.83;9.80;;;;;;;4.53;81.11;101407.47;5074007;28;20208;-79
2021/04/03 07:34:59;;;;;;;27.33;9.93;;;;;;;4.42;80.50;101408.97;5059365;28;20208;-79
2021/04/03 07:37:32;;;;;;;21.07;10.00;;;;;;;4.39;81.54;101414.06;5078870;28;20220;-81
2021/04/03 07:39:59;;;;;;;17.23;10.20;;;;;;;4.40;80.90;101420.09;5063277;28;20202;-81
2021/04/03 07:42:34;;;;;;;21.63;11.13;;;;;;;4.41;81.26;101427.00;5059683;28;20219;-79
2021/04/03 07:45:00;;;;;;;16.87;8.80;;;;;;;4.55;80.61;101423.00;5053234;28;20694;-79
2021/04/03 07:47:26;;;;;;;19.17;10.40;;;;;;;4.62;80.24;101422.31;5053422;28;20335;-80
2021/04/03 07:49:53;;;;;;;17.87;9.60;;;;;;;4.76;79.93;101420.88;5072248;28;20185;-79
2021/04/03 07:52:52;;;;;;;24.97;9.83;;;;;;;4.85;79.26;101432.25;5074053;28;20220;-80
2021/04/03 07:55:30;;;;;;;23.43;9.40;;;;;;;4.80;79.11;101436.44;5074581;28;20224;-80
2021/04/03 07:58:24;;;;;;;14.27;9.83;;;;;;;4.80;78.93;101434.75;5062423;28;20209;-80
2021/04/03 08:00:50;;;;;;;18.70;9.50;;;;;;;4.94;78.44;101432.44;5053349;28;20221;-80
2021/04/03 08:03:20;;;;;;;25.30;10.30;;;;;;;5.06;78.37;101430.09;5054493;28;20229;-81
2021/04/03 08:05:47;;;;;;;18.33;9.90;;;;;;;5.26;79.33;101429.63;5053376;28;20205;-79
2021/04/03 08:08:13;;;;;;;20.13;9.50;;;;;;;5.25;79.17;101433.03;5053555;28;20756;-80
2021/04/03 08:10:39;;;;;;;21.23;9.73;;;;;;;5.32;78.97;101440.09;5052835;28;20259;-79
2021/04/03 08:13:05;;;;;;;22.83;10.17;;;;;;;5.27;78.58;101429.66;5053074;28;20886;-79
2021/04/03 08:15:32;;;;;;;22.43;9.57;;;;;;;5.07;78.67;101439.59;5053052;28;20608;-79
2021/04/03 08:17:58;;;;;;;16.63;9.00;;;;;;;5.32;78.82;101437.50;5052632;28;20208;-84
2021/04/03 08:20:24;;;;;;;19.90;9.00;;;;;;;5.26;77.16;101439.97;5051574;28;20225;-79
2021/04/03 08:23:04;;;;;;;17.77;8.87;;;;;;;5.21;77.42;101433.81;5049781;28;20204;-79
2021/04/03 08:25:30;;;;;;;20.27;9.83;;;;;;;5.34;78.23;101433.22;5051916;28;20327;-80
2021/04/03 08:27:57;;;;;;;24.20;9.67;;;;;;;5.50;77.30;101432.66;5052051;28;20608;-78
2021/04/03 08:30:29;;;;;;;24.63;9.10;;;;;;;5.29;77.09;101432.25;5051696;28;20226;-79
2021/04/03 08:33:13;;;;;;;24.97;9.13;;;;;;;5.38;77.18;101446.25;5051505;28;20201;-79
2021/04/03 08:35:42;;;;;;;20.77;8.37;;;;;;;5.59;76.72;101437.13;5050666;28;20213;-78
2021/04/03 08:38:10;;;;;;;27.10;9.53;;;;;;;5.81;76.28;101445.25;5051366;28;20205;-80
2021/04/03 08:40:36;;;;;;;24.97;8.93;;;;;;;5.77;76.54;101440.03;5048840;28;20225;-79
2021/04/03 08:43:03;;;;;;;13.50;8.27;;;;;;;5.99;75.64;101439.56;5047603;28;20229;-74
2021/04/03 08:45:33;;;;;;;17.63;8.40;;;;;;;5.79;74.88;101437.47;5046362;28;20216;-77
2021/04/03 08:47:59;;;;;;;16.37;7.80;;;;;;;5.88;75.44;101441.94;5046542;28;20240;-78
2021/04/03 08:50:27;;;;;;;17.07;8.17;;;;;;;5.89;74.50;101439.38;5045856;28;20234;-77
2021/04/03 08:52:58;;;;;;;15.53;7.00;;;;;;;6.12;74.18;101441.47;5051033;28;20194;-78
2021/04/03 08:55:25;;;;;;;13.10;7.00;;;;;;;6.26;72.13;101439.94;5053691;28;20209;-78
2021/04/03 08:57:52;;;;;;;16.87;6.93;;;;;;;6.32;71.26;101445.25;5055507;28;20214;-78
2021/04/03 09:00:20;;;;;;;15.30;7.47;;;;;;;6.40;71.21;101436.69;5055624;28;20233;-78
2021/04/03 09:02:46;;;;;;;15.30;6.87;;;;;;;6.40;72.21;101439.28;5054254;28;21011;-78
2021/04/03 09:05:14;;;;;;;15.43;7.40;;;;;;;6.41;71.68;101435.88;5051645;28;20690;-80
2021/04/03 09:07:41;;;;;;;13.00;7.67;;;;;;;6.46;72.15;101435.09;5054594;28;20209;-79
2021/04/03 09:10:09;;;;;;;17.50;8.53;;;;;;;6.50;72.25;101423.00;5053042;28;20230;-79
2021/04/03 09:12:35;;;;;;;16.83;7.87;;;;;;;6.37;72.23;101429.75;5057250;28;20578;-79
2021/04/03 09:15:02;;;;;;;18.77;7.87;;;;;;;6.46;73.08;101418.63;5056853;28;20560;-79
2021/04/03 09:17:28;;;;;;;14.57;7.13;;;;;;;6.60;70.56;101424.00;5057015;28;20213;-80
2021/04/03 09:20:06;;;;;;;13.53;6.60;;;;;;;6.64;67.14;101415.41;5058872;28;20198;-79
2021/04/03 09:22:37;;;;;;;14.13;6.37;;;;;;;6.80;68.89;101416.47;5058766;28;20227;-79
2021/04/03 09:25:08;;;;;;;9.60;5.83;;;;;;;6.96;67.82;101410.63;5058805;28;20225;-79
2021/04/03 09:27:34;;;;;;;10.07;6.10;;;;;;;6.98;65.93;101414.13;5057270;28;20325;-81
2021/04/03 09:30:05;;;;;;;9.20;6.30;;;;;;;6.87;67.65;101410.50;5056722;28;20206;-81
2021/04/03 09:32:40;;;;;;;17.47;6.97;;;;;;;7.03;69.45;101407.22;5058587;28;20219;-81
2021/04/03 09:35:07;;;;;;;15.23;6.80;;;;;;;7.05;68.57;101408.13;5057933;28;20277;-81
2021/04/03 09:37:33;;;;;;;15.33;7.07;;;;;;;7.15;68.55;101403.91;5058422;28;20602;-80
2021/04/03 09:40:00;;;;;;;11.60;5.97;;;;;;;7.37;64.54;101412.78;5057402;28;20211;-81
2021/04/03 09:42:29;;;;;;;6.30;5.00;;;;;;;7.52;64.00;101412.06;5058906;28;20214;-80
2021/04/03 09:44:57;;;;;;;6.23;5.63;;;;;;;7.58;64.39;101412.13;5059642;28;20222;-81
2021/04/03 09:47:23;;;;;;;14.07;6.47;;;;;;;7.76;64.85;101406.22;5058912;28;20302;-82
2021/04/03 09:49:49;;;;;;;12.07;6.23;;;;;;;7.92;65.23;101410.66;5060324;28;20204;-80
2021/04/03 09:52:16;;;;;;;16.03;6.47;;;;;;;8.04;64.23;101409.03;5057282;28;20231;-81
2021/04/03 09:54:43;;;;;;;9.33;5.70;;;;;;;7.92;62.74;101412.41;5058752;28;20203;-81
2021/04/03 09:57:10;;;;;;;15.40;5.73;;;;;;;8.14;64.63;101405.63;5057670;28;20228;-82
2021/04/03 09:59:38;;;;;;;8.90;5.57;;;;;;;8.41;63.63;101404.97;5058394;28;20243;-81
2021/04/03 10:02:05;;;;;;;6.13;4.80;;;;;;;8.44;62.10;101401.50;5057808;28;20228;-80
2021/04/03 10:04:31;;;;;;;8.77;4.97;;;;;;;8.47;61.76;101399.78;5057159;28;21074;-81
2021/04/03 10:06:57;;;;;;;9.27;4.83;;;;;;;8.45;59.54;101405.84;5058345;28;20203;-81
2021/04/03 10:09:24;;;;;;;8.10;3.80;;;;;;;8.43;57.61;101404.97;5058510;28;20273;-81
2021/04/03 10:11:51;;;;;;;9.17;4.73;;;;;;;8.55;59.67;101405.03;5056446;28;20233;-82
2021/04/03 10:14:17;;;;;;;8.10;4.93;;;;;;;8.61;58.99;101399.84;5057382;28;20205;-80
2021/04/03 10:16:44;;;;;;;10.13;4.00;;;;;;;8.54;56.90;101398.06;5057846;28;20217;-82
2021/04/03 10:19:10;;;;;;;7.83;4.53;;;;;;;8.61;56.65;101392.06;5057875;28;20215;-81
2021/04/03 10:21:36;;;;;;;6.30;4.33;;;;;;;8.74;58.30;101392.97;5057467;28;20239;-81
2021/04/03 10:24:02;;;;;;;7.77;3.67;;;;;;;8.92;55.25;101395.66;5057647;28;20234;-81
2021/04/03 10:26:29;;;;;;;3.57;2.33;;;;;;;9.02;50.69;101386.13;5056750;28;20211;-82
2021/04/03 10:28:55;;;;;;;6.33;3.40;;;;;;;9.08;50.99;101403.50;5058260;28;20312;-82
2021/04/03 10:31:21;;;;;;;6.27;4.20;;;;;;;9.14;51.93;101393.97;5058624;28;20754;-81
2021/04/03 10:33:48;;;;;;;6.60;3.40;;;;;;;9.16;53.51;101404.41;5058819;28;20209;-82
2021/04/03 10:36:15;;;;;;;4.73;3.47;;;;;;;9.19;52.37;101396.56;5055251;28;20218;-80
2021/04/03 10:38:43;;;;;;;9.47;4.20;;;;;;;9.10;52.12;101401.78;5051759;28;20207;-81
2021/04/03 10:41:09;;;;;;;7.07;3.83;;;;;;;9.20;53.42;101397.47;5054196;28;20264;-80
2021/04/03 10:43:35;;;;;;;6.80;4.20;;;;;;;9.27;53.00;101407.88;5053936;28;20466;-80
2021/04/03 10:46:01;;;;;;;7.67;4.37;;;;;;;9.30;53.17;101396.63;5053121;28;20304;-79
2021/04/03 10:48:27;;;;;;;9.73;4.10;;;;;;;9.36;50.92;101411.41;5054240;28;20210;-79
2021/04/03 10:50:53;;;;;;;6.73;4.00;;;;;;;9.47;49.92;101407.91;5053823;28;20239;-80
2021/04/03 10:53:19;;;;;;;7.60;4.20;;;;;;;9.63;51.32;101405.31;5054939;28;20219;-78
2021/04/03 10:55:45;;;;;;;7.23;4.60;;;;;;;9.55;50.26;101407.91;5054678;28;20207;-80
2021/04/03 10:58:11;;;;;;;6.07;4.43;;;;;;;9.48;49.15;101401.84;5054457;28;20226;-78
2021/04/03 11:00:37;;;;;;;6.17;4.27;;;;;;;9.65;49.61;101400.97;5056034;28;20225;-82
2021/04/03 11:03:04;;;;;;;7.40;4.67;;;;;;;9.54;50.40;101401.84;5053658;28;20223;-79
2021/04/03 11:05:30;;;;;;;7.50;5.20;;;;;;;9.50;50.70;101407.06;5054954;28;20209;-78
2021/04/03 11:07:57;;;;;;;8.80;4.83;;;;;;;9.43;50.88;101406.16;5055254;28;20228;-81
2021/04/03 11:10:23;;;;;;;7.03;4.63;;;;;;;9.53;52.04;101409.66;5054143;28;20764;-81
2021/04/03 11:12:49;;;;;;;10.37;5.30;;;;;;;9.37;52.93;101408.78;5054317;28;20210;-79
2021/04/03 11:15:15;;;;;;;11.47;5.50;;;;;;;9.63;52.59;101405.31;5048502;28;20233;-79
2021/04/03 11:17:41;;;;;;;7.93;5.87;;;;;;;10.09;53.08;101407.94;5053329;28;20209;-78
2021/04/03 11:20:09;;;;;;;9.27;6.17;;;;;;;9.98;51.82;101404.47;5053699;28;20241;-78
2021/04/03 11:22:35;;;;;;;9.10;5.30;;;;;;;10.05;51.90;101412.28;5053426;28;20207;-79
2021/04/03 11:25:03;;;;;;;8.77;5.30;;;;;;;10.05;52.34;101414.88;5053472;28;20225;-78
2021/04/03 11:27:29;;;;;;;8.07;5.90;;;;;;;10.09;52.72;101405.31;5052472;28;20220;-78
2021/04/03 11:29:55;;;;;;;8.97;6.43;;;;;;;10.36;52.87;101393.97;5053751;28;20238;-79
2021/04/03 11:32:21;;;;;;;15.33;5.73;;;;;;;10.34;52.11;101393.09;5052004;28;20278;-80
2021/04/03 11:34:47;;;;;;;8.77;6.10;;;;;;;10.02;53.33;101400.97;5054227;28;20201;-78